Saga Jandaia — VRYO9 — position and weather

sailwx.info

Track history (hours):
 
Tides and Currents Weather Stations Pressure Air Temp Water Temp Dewpoint Dewpoint Depression Visibility Wind Speed Wind Dir Waves Ship Positions

Saga Jandaia

Last reported at 2018-Apr-04 00:44 UTC. Time now 2018-Apr-20 14:43 UTC.
Position N 23°12' E 117°55'.
Warning: this ship's position is 16 days out of date.

Length 199.2 m; beam 30.5 m; draft 11.8 m.

Type: Cargo ship. MMSI: 477398000.

Date/timePositionNaut miles runAvg speedWind from/ knotsBaromVisibWave heightAir tempDewpointWater temp
2018-Apr-04 00:44N 23°12' E 117°55'411.9
2018-Apr-04 00:22N 23°14' E 117°58'512.0
2018-Apr-03 23:57N 23°18' E 118°02'612.0
2018-Apr-03 23:28N 23°21' E 118°07'612.3
2018-Apr-03 22:57N 23°26' E 118°12'612.8
2018-Apr-03 22:28N 23°29' E 118°18'1112.5
2018-Apr-03 21:35N 23°34' E 118°29'412.6
2018-Apr-03 21:16N 23°36' E 118°32'312.8
2018-Apr-03 21:01N 23°38' E 118°35'1512.6
2018-Apr-03 19:52N 23°48' E 118°46'612.5
2018-Apr-03 19:25N 23°52' E 118°51'1312.3
2018-Apr-03 18:20N 24°00' E 119°02'812.2
2018-Apr-03 17:43N 24°05' E 119°08'312.1
2018-Apr-03 17:29N 24°07' E 119°11'1111.9
2018-Apr-03 16:34N 24°14' E 119°20'1311.3
2018-Apr-03 15:24N 24°22' E 119°32'1010.9
2018-Apr-03 14:27N 24°28' E 119°40'4810.7
2018-Apr-03 09:56N 24°59' E 120°21'1910.6
2018-Apr-03 08:08N 25°14' E 120°34'310.5
2018-Apr-03 07:49N 25°17' E 120°37'310.9
2018-Apr-03 07:30N 25°19' E 120°39'510.4
2018-Apr-03 07:00N 25°24' E 120°42'510.4
2018-Apr-03 06:30N 25°27' E 120°47'510.7
2018-Apr-03 06:00N 25°31' E 120°51'510.4
2018-Apr-03 05:30N 25°34' E 120°55'  
2018-Mar-31 16:43N 34°49' E 129°17'2 9.3
2018-Mar-31 16:29N 34°51' E 129°18'5 9.3
2018-Mar-31 16:00N 34°54' E 129°22'5 9.7
2018-Mar-31 15:30N 34°59' E 129°24'510.2
2018-Mar-31 14:59N 35°04' E 129°26'510.2
2018-Mar-31 14:31N 35°08' E 129°27'510.3
2018-Mar-31 14:01N 35°13' E 129°28'510.6
2018-Mar-31 13:30N 35°19' E 129°28'5 9.5
2018-Mar-31 12:59N 35°23' E 129°25'3 3.1
2018-Mar-31 11:52N 35°26' E 129°22'0 0.0
2018-Mar-31 10:46N 35°26' E 129°22'0 0.0
2018-Mar-31 10:22N 35°26' E 129°22'0 0.0
2018-Mar-31 09:52N 35°26' E 129°22'0 0.0
2018-Mar-31 08:46N 35°26' E 129°22'0 0.0
2018-Mar-31 08:28N 35°26' E 129°22'0 0.0
2018-Mar-31 07:16N 35°26' E 129°22'0 0.0
2018-Mar-31 06:46N 35°26' E 129°22'0 0.0
2018-Mar-31 06:22N 35°26' E 129°22'0 0.0
2018-Mar-31 05:52N 35°26' E 129°22'0 0.0
2018-Mar-31 05:28N 35°26' E 129°22'0 0.0
2018-Mar-31 04:52N 35°26' E 129°22'0 0.0
2018-Mar-31 04:16N 35°26' E 129°22'0 0.0
2018-Mar-31 03:58N 35°26' E 129°22'0 0.0
2018-Mar-31 03:28N 35°26' E 129°22'0 0.0
2018-Mar-31 02:58N 35°26' E 129°22'0 0.0
2018-Mar-31 02:28N 35°26' E 129°22'0 0.0
2018-Mar-30 22:29N 35°26' E 129°22'5 4.7
2018-Mar-30 21:19N 35°22' E 129°27'4 5.4
2018-Mar-30 20:38N 35°21' E 129°31'3 7.9
2018-Mar-30 20:15N 35°19' E 129°35'0 0.5
2018-Mar-30 19:22N 35°19' E 129°35'1 0.4
2018-Mar-30 17:52N 35°19' E 129°36'0 0.8
2018-Mar-30 17:30N 35°19' E 129°36'0 0.9
2018-Mar-30 17:00N 35°19' E 129°37'1 1.6
2018-Mar-30 16:18N 35°20' E 129°36'0 0.4
2018-Mar-30 15:30N 35°20' E 129°36'1 2.7
2018-Mar-30 14:58N 35°20' E 129°35'1 2.5
2018-Mar-30 14:30N 35°18' E 129°35'13 9.6
2018-Mar-30 13:09N 35°07' E 129°28'411.5
2018-Mar-30 12:48N 35°03' E 129°26'412.0
2018-Mar-30 12:30N 34°60' E 129°24'612.1
2018-Mar-30 12:00N 34°55' E 129°20'611.6
2018-Mar-30 11:30N 34°50' E 129°16'611.8
2018-Mar-30 11:00N 34°45' E 129°12'611.3
2018-Mar-30 10:30N 34°41' E 129°08'610.8
2018-Mar-30 09:58N 34°36' E 129°03'610.1
2018-Mar-30 09:24N 34°32' E 128°59'12 9.7
2018-Mar-30 08:07N 34°22' E 128°50'1 9.6
2018-Mar-30 07:59N 34°21' E 128°48'5 9.9
2018-Mar-30 07:30N 34°19' E 128°43'5 9.8
2018-Mar-30 06:59N 34°17' E 128°38'40810.5
2018-Mar-28 16:02N 35°58' E 120°34'1110.9
2018-Mar-28 15:01N 36°01' E 120°21'223.9
2018-Mar-28 14:55N 36°01' E 120°19'1 3.4
2018-Mar-28 14:30N 36°02' E 120°17'3 2.9
2018-Mar-28 13:22N 36°01' E 120°13'0 0.0
2018-Mar-28 12:27N 36°01' E 120°13'0 0.0
2018-Mar-28 11:53N 36°01' E 120°13'0 0.0
2018-Mar-28 11:27N 36°01' E 120°13'0 0.0
2018-Mar-28 11:00N 36°01' E 120°13'0 0.0
2018-Mar-28 10:04N 36°01' E 120°13'0 0.0
2018-Mar-28 09:48N 36°01' E 120°13'0 0.0
2018-Mar-28 09:15N 36°01' E 120°13'0 0.0
2018-Mar-28 09:00N 36°01' E 120°13'0 0.0
2018-Mar-28 08:09N 36°01' E 120°13'0 0.0
2018-Mar-28 07:54N 36°01' E 120°13'0 0.0
2018-Mar-28 07:21N 36°01' E 120°13'0 0.0
2018-Mar-28 06:45N 36°01' E 120°13'0 0.0
2018-Mar-28 06:30N 36°01' E 120°13'0 0.0
2018-Mar-28 05:55N 36°01' E 120°13'0 0.0
2018-Mar-28 05:18N 36°01' E 120°13'0 0.0
2018-Mar-28 04:49N 36°01' E 120°13'0 0.0
2018-Mar-28 04:16N 36°01' E 120°13'0 0.0
2018-Mar-28 03:07N 36°01' E 120°13'0 0.0
2018-Mar-28 02:49N 36°01' E 120°13'0 0.0
2018-Mar-28 02:30N 36°01' E 120°13'0 0.0
2018-Mar-28 02:00N 36°01' E 120°13'0 0.0
2018-Mar-28 01:25N 36°01' E 120°13'0 0.0
2018-Mar-28 00:55N 36°01' E 120°13'0 0.0
2018-Mar-27 23:48N 36°01' E 120°13'0 0.0
2018-Mar-27 21:37N 36°01' E 120°13'0 0.0
2018-Mar-27 21:19N 36°01' E 120°13'0 0.0
2018-Mar-27 21:00N 36°01' E 120°13'0 0.0
2018-Mar-27 20:28N 36°01' E 120°13'0 0.0
2018-Mar-27 19:52N 36°01' E 120°13'0 0.0
2018-Mar-27 19:19N 36°01' E 120°13'0 0.0
2018-Mar-27 19:00N 36°01' E 120°13'0 0.1
2018-Mar-27 18:29N 36°01' E 120°13'2 4.0
2018-Mar-27 17:57N 36°02' E 120°15'4 9.7
2018-Mar-27 17:30N 36°01' E 120°21'5 7.8
2018-Mar-27 16:51N 36°00' E 120°27'3 7.5
2018-Mar-27 16:29N 35°60' E 120°30'273 6.6
2018-Mar-25 23:21N 31°57' E 122°60'713.0
2018-Mar-25 22:47N 31°50' E 123°04'513.3
2018-Mar-25 22:26N 31°46' E 123°05'613.3
2018-Mar-25 21:59N 31°40' E 123°05'913.1
2018-Mar-25 21:20N 31°31' E 123°03'513.1
2018-Mar-25 20:58N 31°27' E 123°03'812.8
2018-Mar-25 20:21N 31°19' E 123°02'512.7
2018-Mar-25 20:00N 31°14' E 123°02'612.5
2018-Mar-25 19:30N 31°09' E 122°58'611.5
2018-Mar-25 18:59N 31°05' E 122°53'611.5
2018-Mar-25 18:28N 31°05' E 122°46'611.6
2018-Mar-25 17:59N 31°06' E 122°39'511.0
2018-Mar-25 17:30N 31°05' E 122°33'5 9.0
2018-Mar-25 16:55N 31°05' E 122°27'3 7.0
2018-Mar-25 16:30N 31°05' E 122°23'4 8.6
2018-Mar-25 16:00N 31°06' E 122°18'611.0
2018-Mar-25 15:29N 31°09' E 122°13'510.8
2018-Mar-25 15:00N 31°12' E 122°08'711.5
2018-Mar-25 14:25N 31°15' E 122°01'511.7
2018-Mar-25 13:58N 31°16' E 121°54'612.1
2018-Mar-25 13:28N 31°18' E 121°48'611.1
2018-Mar-25 12:57N 31°20' E 121°42'3 6.1
2018-Mar-25 12:27N 31°21' E 121°39'4 9.9
2018-Mar-25 12:00N 31°23' E 121°34'5 9.0
2018-Mar-25 11:30N 31°26' E 121°30'5 9.8
2018-Mar-25 11:00N 31°29' E 121°26'1111.4
2018-Mar-25 10:00N 31°37' E 121°16'611.4
2018-Mar-25 09:30N 31°41' E 121°11'611.7
2018-Mar-25 09:00N 31°45' E 121°06'  
Track history (hours):
 
Tides and Currents Weather Stations Pressure Air Temp Water Temp Dewpoint Dewpoint Depression Visibility Wind Speed Wind Dir Waves Ship Positions

Saga Jandaia

Last reported at 2018-Apr-04 00:44 UTC. Time now 2018-Apr-20 14:43 UTC.
Position N 23°12' E 117°55'.
Warning: this ship's position is 16 days out of date.

Length 199.2 m; beam 30.5 m; draft 11.8 m.

Type: Cargo ship. MMSI: 477398000.

Date/timePositionNaut miles runAvg speedWind from/ knotsBaromVisibWave heightAir tempDewpointWater temp
2018-Apr-04 00:44N 23°12' E 117°55'411.9
2018-Apr-04 00:22N 23°14' E 117°58'512.0
2018-Apr-03 23:57N 23°18' E 118°02'612.0
2018-Apr-03 23:28N 23°21' E 118°07'612.3
2018-Apr-03 22:57N 23°26' E 118°12'612.8
2018-Apr-03 22:28N 23°29' E 118°18'1112.5
2018-Apr-03 21:35N 23°34' E 118°29'412.6
2018-Apr-03 21:16N 23°36' E 118°32'312.8
2018-Apr-03 21:01N 23°38' E 118°35'1512.6
2018-Apr-03 19:52N 23°48' E 118°46'612.5
2018-Apr-03 19:25N 23°52' E 118°51'1312.3
2018-Apr-03 18:20N 24°00' E 119°02'812.2
2018-Apr-03 17:43N 24°05' E 119°08'312.1
2018-Apr-03 17:29N 24°07' E 119°11'1111.9
2018-Apr-03 16:34N 24°14' E 119°20'1311.3
2018-Apr-03 15:24N 24°22' E 119°32'1010.9
2018-Apr-03 14:27N 24°28' E 119°40'4810.7
2018-Apr-03 09:56N 24°59' E 120°21'1910.6
2018-Apr-03 08:08N 25°14' E 120°34'310.5
2018-Apr-03 07:49N 25°17' E 120°37'310.9
2018-Apr-03 07:30N 25°19' E 120°39'510.4
2018-Apr-03 07:00N 25°24' E 120°42'510.4
2018-Apr-03 06:30N 25°27' E 120°47'510.7
2018-Apr-03 06:00N 25°31' E 120°51'510.4
2018-Apr-03 05:30N 25°34' E 120°55'  
2018-Mar-31 16:43N 34°49' E 129°17'2 9.3
2018-Mar-31 16:29N 34°51' E 129°18'5 9.3
2018-Mar-31 16:00N 34°54' E 129°22'5 9.7
2018-Mar-31 15:30N 34°59' E 129°24'510.2
2018-Mar-31 14:59N 35°04' E 129°26'510.2
2018-Mar-31 14:31N 35°08' E 129°27'510.3
2018-Mar-31 14:01N 35°13' E 129°28'510.6
2018-Mar-31 13:30N 35°19' E 129°28'5 9.5
2018-Mar-31 12:59N 35°23' E 129°25'3 3.1
2018-Mar-31 11:52N 35°26' E 129°22'0 0.0
2018-Mar-31 10:46N 35°26' E 129°22'0 0.0
2018-Mar-31 10:22N 35°26' E 129°22'0 0.0
2018-Mar-31 09:52N 35°26' E 129°22'0 0.0
2018-Mar-31 08:46N 35°26' E 129°22'0 0.0
2018-Mar-31 08:28N 35°26' E 129°22'0 0.0
2018-Mar-31 07:16N 35°26' E 129°22'0 0.0
2018-Mar-31 06:46N 35°26' E 129°22'0 0.0
2018-Mar-31 06:22N 35°26' E 129°22'0 0.0
2018-Mar-31 05:52N 35°26' E 129°22'0 0.0
2018-Mar-31 05:28N 35°26' E 129°22'0 0.0
2018-Mar-31 04:52N 35°26' E 129°22'0 0.0
2018-Mar-31 04:16N 35°26' E 129°22'0 0.0
2018-Mar-31 03:58N 35°26' E 129°22'0 0.0
2018-Mar-31 03:28N 35°26' E 129°22'0 0.0
2018-Mar-31 02:58N 35°26' E 129°22'0 0.0
2018-Mar-31 02:28N 35°26' E 129°22'0 0.0
2018-Mar-30 22:29N 35°26' E 129°22'5 4.7
2018-Mar-30 21:19N 35°22' E 129°27'4 5.4
2018-Mar-30 20:38N 35°21' E 129°31'3 7.9
2018-Mar-30 20:15N 35°19' E 129°35'0 0.5
2018-Mar-30 19:22N 35°19' E 129°35'1 0.4
2018-Mar-30 17:52N 35°19' E 129°36'0 0.8
2018-Mar-30 17:30N 35°19' E 129°36'0 0.9
2018-Mar-30 17:00N 35°19' E 129°37'1 1.6
2018-Mar-30 16:18N 35°20' E 129°36'0 0.4
2018-Mar-30 15:30N 35°20' E 129°36'1 2.7
2018-Mar-30 14:58N 35°20' E 129°35'1 2.5
2018-Mar-30 14:30N 35°18' E 129°35'13 9.6
2018-Mar-30 13:09N 35°07' E 129°28'411.5
2018-Mar-30 12:48N 35°03' E 129°26'412.0
2018-Mar-30 12:30N 34°60' E 129°24'612.1
2018-Mar-30 12:00N 34°55' E 129°20'611.6
2018-Mar-30 11:30N 34°50' E 129°16'611.8
2018-Mar-30 11:00N 34°45' E 129°12'611.3
2018-Mar-30 10:30N 34°41' E 129°08'610.8
2018-Mar-30 09:58N 34°36' E 129°03'610.1
2018-Mar-30 09:24N 34°32' E 128°59'12 9.7
2018-Mar-30 08:07N 34°22' E 128°50'1 9.6
2018-Mar-30 07:59N 34°21' E 128°48'5 9.9
2018-Mar-30 07:30N 34°19' E 128°43'5 9.8
2018-Mar-30 06:59N 34°17' E 128°38'40810.5
2018-Mar-28 16:02N 35°58' E 120°34'1110.9
2018-Mar-28 15:01N 36°01' E 120°21'223.9
2018-Mar-28 14:55N 36°01' E 120°19'1 3.4
2018-Mar-28 14:30N 36°02' E 120°17'3 2.9
2018-Mar-28 13:22N 36°01' E 120°13'0 0.0
2018-Mar-28 12:27N 36°01' E 120°13'0 0.0
2018-Mar-28 11:53N 36°01' E 120°13'0 0.0
2018-Mar-28 11:27N 36°01' E 120°13'0 0.0
2018-Mar-28 11:00N 36°01' E 120°13'0 0.0
2018-Mar-28 10:04N 36°01' E 120°13'0 0.0
2018-Mar-28 09:48N 36°01' E 120°13'0 0.0
2018-Mar-28 09:15N 36°01' E 120°13'0 0.0
2018-Mar-28 09:00N 36°01' E 120°13'0 0.0
2018-Mar-28 08:09N 36°01' E 120°13'0 0.0
2018-Mar-28 07:54N 36°01' E 120°13'0 0.0
2018-Mar-28 07:21N 36°01' E 120°13'0 0.0
2018-Mar-28 06:45N 36°01' E 120°13'0 0.0
2018-Mar-28 06:30N 36°01' E 120°13'0 0.0
2018-Mar-28 05:55N 36°01' E 120°13'0 0.0
2018-Mar-28 05:18N 36°01' E 120°13'0 0.0
2018-Mar-28 04:49N 36°01' E 120°13'0 0.0
2018-Mar-28 04:16N 36°01' E 120°13'0 0.0
2018-Mar-28 03:07N 36°01' E 120°13'0 0.0
2018-Mar-28 02:49N 36°01' E 120°13'0 0.0
2018-Mar-28 02:30N 36°01' E 120°13'0 0.0
2018-Mar-28 02:00N 36°01' E 120°13'0 0.0
2018-Mar-28 01:25N 36°01' E 120°13'0 0.0
2018-Mar-28 00:55N 36°01' E 120°13'0 0.0
2018-Mar-27 23:48N 36°01' E 120°13'0 0.0
2018-Mar-27 21:37N 36°01' E 120°13'0 0.0
2018-Mar-27 21:19N 36°01' E 120°13'0 0.0
2018-Mar-27 21:00N 36°01' E 120°13'0 0.0
2018-Mar-27 20:28N 36°01' E 120°13'0 0.0
2018-Mar-27 19:52N 36°01' E 120°13'0 0.0
2018-Mar-27 19:19N 36°01' E 120°13'0 0.0
2018-Mar-27 19:00N 36°01' E 120°13'0 0.1
2018-Mar-27 18:29N 36°01' E 120°13'2 4.0
2018-Mar-27 17:57N 36°02' E 120°15'4 9.7
2018-Mar-27 17:30N 36°01' E 120°21'5 7.8
2018-Mar-27 16:51N 36°00' E 120°27'3 7.5
2018-Mar-27 16:29N 35°60' E 120°30'273 6.6
2018-Mar-25 23:21N 31°57' E 122°60'713.0
2018-Mar-25 22:47N 31°50' E 123°04'513.3
2018-Mar-25 22:26N 31°46' E 123°05'613.3
2018-Mar-25 21:59N 31°40' E 123°05'913.1
2018-Mar-25 21:20N 31°31' E 123°03'513.1
2018-Mar-25 20:58N 31°27' E 123°03'812.8
2018-Mar-25 20:21N 31°19' E 123°02'512.7
2018-Mar-25 20:00N 31°14' E 123°02'612.5
2018-Mar-25 19:30N 31°09' E 122°58'611.5
2018-Mar-25 18:59N 31°05' E 122°53'611.5
2018-Mar-25 18:28N 31°05' E 122°46'611.6
2018-Mar-25 17:59N 31°06' E 122°39'511.0
2018-Mar-25 17:30N 31°05' E 122°33'5 9.0
2018-Mar-25 16:55N 31°05' E 122°27'3 7.0
2018-Mar-25 16:30N 31°05' E 122°23'4 8.6
2018-Mar-25 16:00N 31°06' E 122°18'611.0
2018-Mar-25 15:29N 31°09' E 122°13'510.8
2018-Mar-25 15:00N 31°12' E 122°08'711.5
2018-Mar-25 14:25N 31°15' E 122°01'511.7
2018-Mar-25 13:58N 31°16' E 121°54'612.1
2018-Mar-25 13:28N 31°18' E 121°48'611.1
2018-Mar-25 12:57N 31°20' E 121°42'3 6.1
2018-Mar-25 12:27N 31°21' E 121°39'4 9.9
2018-Mar-25 12:00N 31°23' E 121°34'5 9.0
2018-Mar-25 11:30N 31°26' E 121°30'5 9.8
2018-Mar-25 11:00N 31°29' E 121°26'1111.4
2018-Mar-25 10:00N 31°37' E 121°16'611.4
2018-Mar-25 09:30N 31°41' E 121°11'611.7
2018-Mar-25 09:00N 31°45' E 121°06'  

Dump ship's entire track history